sensor_id;sensor_type;location;lat;lon;timestamp;temperature;humidity
16814;DHT22;8524;57.650;11.926;2022-09-02T00:00:40;8.80;99.90
16814;DHT22;8524;57.650;11.926;2022-09-02T00:03:07;8.70;99.90
16814;DHT22;8524;57.650;11.926;2022-09-02T00:05:34;8.70;99.90
16814;DHT22;8524;57.650;11.926;2022-09-02T00:08:02;8.70;99.90
16814;DHT22;8524;57.650;11.926;2022-09-02T00:10:29;8.70;99.90
16814;DHT22;8524;57.650;11.926;2022-09-02T00:12:56;8.60;99.90
16814;DHT22;8524;57.650;11.926;2022-09-02T00:15:24;8.70;99.90
16814;DHT22;8524;57.650;11.926;2022-09-02T00:17:52;8.60;99.90
16814;DHT22;8524;57.650;11.926;2022-09-02T00:20:20;8.60;99.90
16814;DHT22;8524;57.650;11.926;2022-09-02T00:22:47;8.60;99.90
16814;DHT22;8524;57.650;11.926;2022-09-02T00:25:14;8.60;99.90
16814;DHT22;8524;57.650;11.926;2022-09-02T00:27:41;8.60;99.90
16814;DHT22;8524;57.650;11.926;2022-09-02T00:30:09;8.50;99.90
16814;DHT22;8524;57.650;11.926;2022-09-02T00:32:37;8.60;99.90
16814;DHT22;8524;57.650;11.926;2022-09-02T00:35:06;8.50;99.90
16814;DHT22;8524;57.650;11.926;2022-09-02T00:37:34;8.40;99.90
16814;DHT22;8524;57.650;11.926;2022-09-02T00:40:02;8.30;99.90
16814;DHT22;8524;57.650;11.926;2022-09-02T00:42:29;8.30;99.90
16814;DHT22;8524;57.650;11.926;2022-09-02T00:44:56;8.30;99.90
16814;DHT22;8524;57.650;11.926;2022-09-02T00:47:23;8.30;99.90
16814;DHT22;8524;57.650;11.926;2022-09-02T00:49:52;8.30;99.90
16814;DHT22;8524;57.650;11.926;2022-09-02T00:52:23;8.20;99.90
16814;DHT22;8524;57.650;11.926;2022-09-02T00:54:53;8.10;99.90
16814;DHT22;8524;57.650;11.926;2022-09-02T00:57:25;8.00;99.90
16814;DHT22;8524;57.650;11.926;2022-09-02T01:00:00;7.90;99.90
16814;DHT22;8524;57.650;11.926;2022-09-02T01:02:29;8.00;99.90
16814;DHT22;8524;57.650;11.926;2022-09-02T01:04:57;8.00;99.90
16814;DHT22;8524;57.650;11.926;2022-09-02T01:07:29;8.00;99.90
16814;DHT22;8524;57.650;11.926;2022-09-02T01:09:58;7.90;99.90
16814;DHT22;8524;57.650;11.926;2022-09-02T01:12:28;7.90;99.90
16814;DHT22;8524;57.650;11.926;2022-09-02T01:14:56;7.90;99.90
16814;DHT22;8524;57.650;11.926;2022-09-02T01:17:23;7.90;99.90
16814;DHT22;8524;57.650;11.926;2022-09-02T01:19:54;8.00;99.90
16814;DHT22;8524;57.650;11.926;2022-09-02T01:22:25;8.00;99.90
16814;DHT22;8524;57.650;11.926;2022-09-02T01:24:53;7.90;99.90
16814;DHT22;8524;57.650;11.926;2022-09-02T01:27:23;7.80;99.90
16814;DHT22;8524;57.650;11.926;2022-09-02T01:29:51;7.80;99.90
16814;DHT22;8524;57.650;11.926;2022-09-02T01:32:18;7.80;99.90
16814;DHT22;8524;57.650;11.926;2022-09-02T01:34:45;7.90;99.90
16814;DHT22;8524;57.650;11.926;2022-09-02T01:37:13;7.90;99.90
16814;DHT22;8524;57.650;11.926;2022-09-02T01:39:41;7.90;99.90
16814;DHT22;8524;57.650;11.926;2022-09-02T01:42:10;7.90;99.90
16814;DHT22;8524;57.650;11.926;2022-09-02T01:44:37;7.90;99.90
16814;DHT22;8524;57.650;11.926;2022-09-02T01:47:08;7.80;99.90
16814;DHT22;8524;57.650;11.926;2022-09-02T01:49:36;7.80;99.90
16814;DHT22;8524;57.650;11.926;2022-09-02T01:52:03;7.80;99.90
16814;DHT22;8524;57.650;11.926;2022-09-02T01:54:31;7.80;99.90
16814;DHT22;8524;57.650;11.926;2022-09-02T01:56:59;7.80;99.90
16814;DHT22;8524;57.650;11.926;2022-09-02T01:59:26;7.70;99.90
16814;DHT22;8524;57.650;11.926;2022-09-02T02:01:53;7.60;99.90
16814;DHT22;8524;57.650;11.926;2022-09-02T02:04:20;7.60;99.90
16814;DHT22;8524;57.650;11.926;2022-09-02T02:06:50;7.60;99.90
16814;DHT22;8524;57.650;11.926;2022-09-02T02:09:17;7.60;99.90
16814;DHT22;8524;57.650;11.926;2022-09-02T02:11:45;7.60;99.90
16814;DHT22;8524;57.650;11.926;2022-09-02T02:14:13;7.70;99.90
16814;DHT22;8524;57.650;11.926;2022-09-02T02:16:41;7.70;99.90
16814;DHT22;8524;57.650;11.926;2022-09-02T02:19:08;7.70;99.90
16814;DHT22;8524;57.650;11.926;2022-09-02T02:21:35;7.60;99.90
16814;DHT22;8524;57.650;11.926;2022-09-02T02:24:03;7.70;99.90
16814;DHT22;8524;57.650;11.926;2022-09-02T02:26:30;7.70;99.90
16814;DHT22;8524;57.650;11.926;2022-09-02T02:28:57;7.60;99.90
16814;DHT22;8524;57.650;11.926;2022-09-02T02:31:26;7.70;99.90
16814;DHT22;8524;57.650;11.926;2022-09-02T02:33:53;7.70;99.90
16814;DHT22;8524;57.650;11.926;2022-09-02T02:36:20;7.60;99.90
16814;DHT22;8524;57.650;11.926;2022-09-02T02:38:47;7.60;99.90
16814;DHT22;8524;57.650;11.926;2022-09-02T02:41:14;7.60;99.90
16814;DHT22;8524;57.650;11.926;2022-09-02T02:43:41;7.50;99.90
16814;DHT22;8524;57.650;11.926;2022-09-02T02:46:09;7.50;99.90
16814;DHT22;8524;57.650;11.926;2022-09-02T02:48:38;7.50;99.90
16814;DHT22;8524;57.650;11.926;2022-09-02T02:51:06;7.50;99.90
16814;DHT22;8524;57.650;11.926;2022-09-02T02:53:33;7.50;99.90
16814;DHT22;8524;57.650;11.926;2022-09-02T02:56:02;7.50;99.90
16814;DHT22;8524;57.650;11.926;2022-09-02T02:58:29;7.50;99.90
16814;DHT22;8524;57.650;11.926;2022-09-02T03:00:56;7.50;99.90
16814;DHT22;8524;57.650;11.926;2022-09-02T03:03:24;7.40;99.90
16814;DHT22;8524;57.650;11.926;2022-09-02T03:05:53;7.40;99.90
16814;DHT22;8524;57.650;11.926;2022-09-02T03:08:21;7.40;99.90
16814;DHT22;8524;57.650;11.926;2022-09-02T03:10:50;7.50;99.90
16814;DHT22;8524;57.650;11.926;2022-09-02T03:13:19;7.50;99.90
16814;DHT22;8524;57.650;11.926;2022-09-02T03:15:47;7.50;99.90
16814;DHT22;8524;57.650;11.926;2022-09-02T03:18:15;7.50;99.90
16814;DHT22;8524;57.650;11.926;2022-09-02T03:20:42;7.50;99.90
16814;DHT22;8524;57.650;11.926;2022-09-02T03:23:11;7.50;99.90
16814;DHT22;8524;57.650;11.926;2022-09-02T03:25:41;7.60;99.90
16814;DHT22;8524;57.650;11.926;2022-09-02T03:28:08;7.60;99.90
16814;DHT22;8524;57.650;11.926;2022-09-02T03:30:35;7.60;99.90
16814;DHT22;8524;57.650;11.926;2022-09-02T03:33:03;7.50;99.90
16814;DHT22;8524;57.650;11.926;2022-09-02T03:35:31;7.60;99.90
16814;DHT22;8524;57.650;11.926;2022-09-02T03:37:59;7.60;99.90
16814;DHT22;8524;57.650;11.926;2022-09-02T03:40:27;7.60;99.90
16814;DHT22;8524;57.650;11.926;2022-09-02T03:42:55;7.70;99.90
16814;DHT22;8524;57.650;11.926;2022-09-02T03:45:22;7.90;99.90
16814;DHT22;8524;57.650;11.926;2022-09-02T03:47:50;7.90;99.90
16814;DHT22;8524;57.650;11.926;2022-09-02T03:50:21;8.10;99.90
16814;DHT22;8524;57.650;11.926;2022-09-02T03:52:48;8.10;99.90
16814;DHT22;8524;57.650;11.926;2022-09-02T03:55:17;8.20;99.90
16814;DHT22;8524;57.650;11.926;2022-09-02T03:57:46;8.40;99.90
16814;DHT22;8524;57.650;11.926;2022-09-02T04:00:15;8.40;99.90
16814;DHT22;8524;57.650;11.926;2022-09-02T04:02:43;8.40;99.90
16814;DHT22;8524;57.650;11.926;2022-09-02T04:05:11;8.40;99.90
16814;DHT22;8524;57.650;11.926;2022-09-02T04:07:38;8.40;99.90
16814;DHT22;8524;57.650;11.926;2022-09-02T04:10:07;8.50;99.90
16814;DHT22;8524;57.650;11.926;2022-09-02T04:12:34;8.50;99.90
16814;DHT22;8524;57.650;11.926;2022-09-02T04:15:04;8.50;99.90
16814;DHT22;8524;57.650;11.926;2022-09-02T04:17:34;8.40;99.90
16814;DHT22;8524;57.650;11.926;2022-09-02T04:20:02;8.30;99.90
16814;DHT22;8524;57.650;11.926;2022-09-02T04:22:29;8.20;99.90
16814;DHT22;8524;57.650;11.926;2022-09-02T04:24:56;8.20;99.90
16814;DHT22;8524;57.650;11.926;2022-09-02T04:27:23;8.10;99.90
16814;DHT22;8524;57.650;11.926;2022-09-02T04:29:50;8.20;99.90
16814;DHT22;8524;57.650;11.926;2022-09-02T04:32:19;8.10;99.90
16814;DHT22;8524;57.650;11.926;2022-09-02T04:34:46;8.20;99.90
16814;DHT22;8524;57.650;11.926;2022-09-02T04:37:13;8.30;99.90
16814;DHT22;8524;57.650;11.926;2022-09-02T04:39:40;8.40;99.90
16814;DHT22;8524;57.650;11.926;2022-09-02T04:42:07;8.40;99.90
16814;DHT22;8524;57.650;11.926;2022-09-02T04:44:34;8.60;99.90
16814;DHT22;8524;57.650;11.926;2022-09-02T04:47:01;8.70;99.90
16814;DHT22;8524;57.650;11.926;2022-09-02T04:49:29;8.80;99.90
16814;DHT22;8524;57.650;11.926;2022-09-02T04:51:57;8.80;99.90
16814;DHT22;8524;57.650;11.926;2022-09-02T04:54:24;8.80;99.90
16814;DHT22;8524;57.650;11.926;2022-09-02T04:56:51;8.90;99.90
16814;DHT22;8524;57.650;11.926;2022-09-02T04:59:18;8.90;99.90
16814;DHT22;8524;57.650;11.926;2022-09-02T05:01:46;9.10;99.90
16814;DHT22;8524;57.650;11.926;2022-09-02T05:04:14;9.10;99.90
16814;DHT22;8524;57.650;11.926;2022-09-02T05:06:44;9.20;99.90
16814;DHT22;8524;57.650;11.926;2022-09-02T05:09:12;9.40;99.90
16814;DHT22;8524;57.650;11.926;2022-09-02T05:11:39;9.50;99.90
16814;DHT22;8524;57.650;11.926;2022-09-02T05:14:07;9.60;99.90
16814;DHT22;8524;57.650;11.926;2022-09-02T05:16:38;9.70;99.90
16814;DHT22;8524;57.650;11.926;2022-09-02T05:19:07;9.90;99.90
16814;DHT22;8524;57.650;11.926;2022-09-02T05:21:38;10.10;99.90
16814;DHT22;8524;57.650;11.926;2022-09-02T05:24:07;10.30;99.90
16814;DHT22;8524;57.650;11.926;2022-09-02T05:26:34;10.50;99.90
16814;DHT22;8524;57.650;11.926;2022-09-02T05:29:01;10.70;99.90
16814;DHT22;8524;57.650;11.926;2022-09-02T05:31:31;10.90;99.90
16814;DHT22;8524;57.650;11.926;2022-09-02T05:33:58;11.00;99.90
16814;DHT22;8524;57.650;11.926;2022-09-02T05:36:25;11.20;99.90
16814;DHT22;8524;57.650;11.926;2022-09-02T05:38:57;11.40;99.90
16814;DHT22;8524;57.650;11.926;2022-09-02T05:41:26;11.60;99.90
16814;DHT22;8524;57.650;11.926;2022-09-02T05:43:56;11.80;99.90
16814;DHT22;8524;57.650;11.926;2022-09-02T05:46:24;12.00;99.90
16814;DHT22;8524;57.650;11.926;2022-09-02T05:48:53;12.30;99.90
16814;DHT22;8524;57.650;11.926;2022-09-02T05:51:37;12.40;99.90
16814;DHT22;8524;57.650;11.926;2022-09-02T05:54:08;12.50;99.90
16814;DHT22;8524;57.650;11.926;2022-09-02T05:56:38;12.60;99.90
16814;DHT22;8524;57.650;11.926;2022-09-02T05:59:06;12.70;99.90
16814;DHT22;8524;57.650;11.926;2022-09-02T06:01:34;12.80;99.90
16814;DHT22;8524;57.650;11.926;2022-09-02T06:04:02;12.90;99.90
16814;DHT22;8524;57.650;11.926;2022-09-02T06:06:29;13.20;99.90
16814;DHT22;8524;57.650;11.926;2022-09-02T06:08:57;13.30;99.90
16814;DHT22;8524;57.650;11.926;2022-09-02T06:11:25;13.40;99.90
16814;DHT22;8524;57.650;11.926;2022-09-02T06:13:54;13.40;99.90
16814;DHT22;8524;57.650;11.926;2022-09-02T06:16:22;13.60;99.90
16814;DHT22;8524;57.650;11.926;2022-09-02T06:18:50;13.70;99.90
16814;DHT22;8524;57.650;11.926;2022-09-02T06:21:18;13.90;99.90
16814;DHT22;8524;57.650;11.926;2022-09-02T06:23:46;14.00;99.90
16814;DHT22;8524;57.650;11.926;2022-09-02T06:29:07;14.30;99.90
16814;DHT22;8524;57.650;11.926;2022-09-02T06:31:35;14.30;99.90
16814;DHT22;8524;57.650;11.926;2022-09-02T06:34:02;14.50;99.90
16814;DHT22;8524;57.650;11.926;2022-09-02T06:36:30;14.50;99.90
16814;DHT22;8524;57.650;11.926;2022-09-02T06:39:00;14.60;99.90
16814;DHT22;8524;57.650;11.926;2022-09-02T06:41:29;14.70;99.90
16814;DHT22;8524;57.650;11.926;2022-09-02T06:43:59;14.80;99.90
16814;DHT22;8524;57.650;11.926;2022-09-02T06:46:30;14.80;99.90
16814;DHT22;8524;57.650;11.926;2022-09-02T06:48:58;14.80;99.90
16814;DHT22;8524;57.650;11.926;2022-09-02T06:51:27;14.90;99.90
16814;DHT22;8524;57.650;11.926;2022-09-02T06:53:55;15.00;99.90
16814;DHT22;8524;57.650;11.926;2022-09-02T06:56:22;15.10;99.90
16814;DHT22;8524;57.650;11.926;2022-09-02T06:58:51;15.20;99.90
16814;DHT22;8524;57.650;11.926;2022-09-02T07:01:19;15.30;99.90
16814;DHT22;8524;57.650;11.926;2022-09-02T07:03:51;15.30;99.90
16814;DHT22;8524;57.650;11.926;2022-09-02T07:06:37;15.30;99.90
16814;DHT22;8524;57.650;11.926;2022-09-02T07:09:07;15.50;99.90
16814;DHT22;8524;57.650;11.926;2022-09-02T07:11:35;15.70;99.90
16814;DHT22;8524;57.650;11.926;2022-09-02T07:14:03;15.80;99.90
16814;DHT22;8524;57.650;11.926;2022-09-02T07:16:33;16.00;99.90
16814;DHT22;8524;57.650;11.926;2022-09-02T07:19:04;16.10;99.90
16814;DHT22;8524;57.650;11.926;2022-09-02T07:21:32;16.00;99.90
16814;DHT22;8524;57.650;11.926;2022-09-02T07:24:00;16.00;99.90
16814;DHT22;8524;57.650;11.926;2022-09-02T07:26:34;16.20;99.90
16814;DHT22;8524;57.650;11.926;2022-09-02T07:29:13;16.30;99.90
16814;DHT22;8524;57.650;11.926;2022-09-02T07:31:46;16.30;99.90
16814;DHT22;8524;57.650;11.926;2022-09-02T07:34:15;16.60;99.90
16814;DHT22;8524;57.650;11.926;2022-09-02T07:36:43;16.60;99.90
16814;DHT22;8524;57.650;11.926;2022-09-02T07:39:12;16.80;99.90
16814;DHT22;8524;57.650;11.926;2022-09-02T07:41:40;16.90;99.90
16814;DHT22;8524;57.650;11.926;2022-09-02T07:44:08;17.10;99.90
16814;DHT22;8524;57.650;11.926;2022-09-02T07:46:36;17.20;99.90
16814;DHT22;8524;57.650;11.926;2022-09-02T07:49:08;17.30;99.90
16814;DHT22;8524;57.650;11.926;2022-09-02T07:51:39;17.20;99.90
16814;DHT22;8524;57.650;11.926;2022-09-02T07:54:09;17.20;99.90
16814;DHT22;8524;57.650;11.926;2022-09-02T07:56:42;17.20;99.90
16814;DHT22;8524;57.650;11.926;2022-09-02T07:59:10;17.20;99.90
16814;DHT22;8524;57.650;11.926;2022-09-02T08:01:37;17.40;99.90
16814;DHT22;8524;57.650;11.926;2022-09-02T08:04:05;17.50;99.90
16814;DHT22;8524;57.650;11.926;2022-09-02T08:06:32;17.70;99.90
16814;DHT22;8524;57.650;11.926;2022-09-02T08:09:03;17.90;99.90
16814;DHT22;8524;57.650;11.926;2022-09-02T08:11:31;17.90;99.90
16814;DHT22;8524;57.650;11.926;2022-09-02T08:14:03;17.60;99.90
16814;DHT22;8524;57.650;11.926;2022-09-02T08:16:33;17.70;99.90
16814;DHT22;8524;57.650;11.926;2022-09-02T08:19:00;17.80;99.90
16814;DHT22;8524;57.650;11.926;2022-09-02T08:21:27;17.90;99.90
16814;DHT22;8524;57.650;11.926;2022-09-02T08:23:55;17.90;99.90
16814;DHT22;8524;57.650;11.926;2022-09-02T08:26:24;18.00;99.90
16814;DHT22;8524;57.650;11.926;2022-09-02T08:28:53;18.20;99.90
16814;DHT22;8524;57.650;11.926;2022-09-02T08:31:23;18.20;99.90
16814;DHT22;8524;57.650;11.926;2022-09-02T08:33:50;18.50;99.90
16814;DHT22;8524;57.650;11.926;2022-09-02T08:36:17;18.10;99.90
16814;DHT22;8524;57.650;11.926;2022-09-02T08:38:45;18.00;99.90
16814;DHT22;8524;57.650;11.926;2022-09-02T08:41:19;18.10;99.90
16814;DHT22;8524;57.650;11.926;2022-09-02T08:43:50;18.20;99.90
16814;DHT22;8524;57.650;11.926;2022-09-02T08:46:20;18.30;99.90
16814;DHT22;8524;57.650;11.926;2022-09-02T08:48:52;18.50;99.90
16814;DHT22;8524;57.650;11.926;2022-09-02T08:51:25;18.70;99.90
16814;DHT22;8524;57.650;11.926;2022-09-02T08:53:59;18.90;99.90
16814;DHT22;8524;57.650;11.926;2022-09-02T08:56:28;19.00;99.90
16814;DHT22;8524;57.650;11.926;2022-09-02T08:58:57;19.20;99.90
16814;DHT22;8524;57.650;11.926;2022-09-02T09:01:33;19.00;99.90
16814;DHT22;8524;57.650;11.926;2022-09-02T09:04:19;19.00;99.90
16814;DHT22;8524;57.650;11.926;2022-09-02T09:07:24;18.70;99.90
16814;DHT22;8524;57.650;11.926;2022-09-02T09:10:04;18.70;99.90
16814;DHT22;8524;57.650;11.926;2022-09-02T09:12:52;18.80;99.90
16814;DHT22;8524;57.650;11.926;2022-09-02T09:15:31;19.20;99.90
16814;DHT22;8524;57.650;11.926;2022-09-02T09:18:06;19.30;99.90
16814;DHT22;8524;57.650;11.926;2022-09-02T09:20:41;19.50;99.90
16814;DHT22;8524;57.650;11.926;2022-09-02T09:23:17;19.60;99.90
16814;DHT22;8524;57.650;11.926;2022-09-02T09:25:52;19.90;99.90
16814;DHT22;8524;57.650;11.926;2022-09-02T09:28:21;19.50;99.90
16814;DHT22;8524;57.650;11.926;2022-09-02T09:30:50;19.60;99.90
16814;DHT22;8524;57.650;11.926;2022-09-02T09:33:20;19.50;99.90
16814;DHT22;8524;57.650;11.926;2022-09-02T09:35:50;19.50;99.90
16814;DHT22;8524;57.650;11.926;2022-09-02T09:38:28;19.50;99.90
16814;DHT22;8524;57.650;11.926;2022-09-02T09:41:13;19.50;99.90
16814;DHT22;8524;57.650;11.926;2022-09-02T09:43:40;19.60;99.90
16814;DHT22;8524;57.650;11.926;2022-09-02T09:46:25;19.80;99.90
16814;DHT22;8524;57.650;11.926;2022-09-02T09:48:53;20.10;99.90
16814;DHT22;8524;57.650;11.926;2022-09-02T09:51:20;20.20;99.90
16814;DHT22;8524;57.650;11.926;2022-09-02T09:53:47;20.20;99.90
16814;DHT22;8524;57.650;11.926;2022-09-02T09:56:32;20.40;99.90
16814;DHT22;8524;57.650;11.926;2022-09-02T09:59:00;20.30;99.90
16814;DHT22;8524;57.650;11.926;2022-09-02T10:01:31;20.50;99.90
16814;DHT22;8524;57.650;11.926;2022-09-02T10:04:01;20.80;99.90
16814;DHT22;8524;57.650;11.926;2022-09-02T10:06:38;20.80;99.90
16814;DHT22;8524;57.650;11.926;2022-09-02T10:09:24;20.60;99.90
16814;DHT22;8524;57.650;11.926;2022-09-02T10:11:56;20.80;99.90
16814;DHT22;8524;57.650;11.926;2022-09-02T10:14:25;21.00;99.90
16814;DHT22;8524;57.650;11.926;2022-09-02T10:17:00;21.10;99.90
16814;DHT22;8524;57.650;11.926;2022-09-02T10:19:36;21.00;99.90
16814;DHT22;8524;57.650;11.926;2022-09-02T10:22:18;21.10;99.90
16814;DHT22;8524;57.650;11.926;2022-09-02T10:25:05;21.00;99.90
16814;DHT22;8524;57.650;11.926;2022-09-02T10:27:42;20.70;99.90
16814;DHT22;8524;57.650;11.926;2022-09-02T10:30:16;21.00;99.90
16814;DHT22;8524;57.650;11.926;2022-09-02T10:33:21;21.10;99.90
16814;DHT22;8524;57.650;11.926;2022-09-02T10:35:55;21.30;99.90
16814;DHT22;8524;57.650;11.926;2022-09-02T10:38:36;21.30;99.90
16814;DHT22;8524;57.650;11.926;2022-09-02T10:41:17;21.00;99.90
16814;DHT22;8524;57.650;11.926;2022-09-02T10:44:02;21.10;99.90
16814;DHT22;8524;57.650;11.926;2022-09-02T10:46:41;21.30;99.90
16814;DHT22;8524;57.650;11.926;2022-09-02T10:49:17;21.50;99.90
16814;DHT22;8524;57.650;11.926;2022-09-02T10:51:52;21.60;99.90
16814;DHT22;8524;57.650;11.926;2022-09-02T10:54:33;21.60;99.90
16814;DHT22;8524;57.650;11.926;2022-09-02T10:57:06;21.90;99.90
16814;DHT22;8524;57.650;11.926;2022-09-02T10:59:39;22.10;99.90
16814;DHT22;8524;57.650;11.926;2022-09-02T11:02:12;22.00;99.90
16814;DHT22;8524;57.650;11.926;2022-09-02T11:04:46;21.80;99.90
16814;DHT22;8524;57.650;11.926;2022-09-02T11:07:17;22.20;99.90
16814;DHT22;8524;57.650;11.926;2022-09-02T11:09:51;22.10;99.90
16814;DHT22;8524;57.650;11.926;2022-09-02T11:12:24;22.00;99.90
16814;DHT22;8524;57.650;11.926;2022-09-02T11:15:02;22.20;99.90
16814;DHT22;8524;57.650;11.926;2022-09-02T11:17:37;22.40;99.90
16814;DHT22;8524;57.650;11.926;2022-09-02T11:20:13;22.10;99.90
16814;DHT22;8524;57.650;11.926;2022-09-02T11:22:50;21.70;99.90
16814;DHT22;8524;57.650;11.926;2022-09-02T11:25:22;21.20;99.90
16814;DHT22;8524;57.650;11.926;2022-09-02T11:27:56;21.60;99.90
16814;DHT22;8524;57.650;11.926;2022-09-02T11:30:31;21.60;99.90
16814;DHT22;8524;57.650;11.926;2022-09-02T11:33:09;21.70;99.90
16814;DHT22;8524;57.650;11.926;2022-09-02T11:35:40;21.80;99.90
16814;DHT22;8524;57.650;11.926;2022-09-02T11:38:19;21.60;99.90
16814;DHT22;8524;57.650;11.926;2022-09-02T11:41:14;21.40;99.90
16814;DHT22;8524;57.650;11.926;2022-09-02T11:43:49;21.60;99.90
16814;DHT22;8524;57.650;11.926;2022-09-02T11:46:40;21.80;99.90
16814;DHT22;8524;57.650;11.926;2022-09-02T11:49:28;21.70;99.90
16814;DHT22;8524;57.650;11.926;2022-09-02T11:52:17;22.00;99.90
16814;DHT22;8524;57.650;11.926;2022-09-02T11:54:50;22.10;99.90
16814;DHT22;8524;57.650;11.926;2022-09-02T11:57:23;21.90;99.90
16814;DHT22;8524;57.650;11.926;2022-09-02T12:00:07;21.70;99.90
16814;DHT22;8524;57.650;11.926;2022-09-02T12:02:41;21.80;99.90
16814;DHT22;8524;57.650;11.926;2022-09-02T12:05:48;21.70;99.90
16814;DHT22;8524;57.650;11.926;2022-09-02T12:11:51;22.20;99.90
16814;DHT22;8524;57.650;11.926;2022-09-02T12:18:11;21.60;99.90
16814;DHT22;8524;57.650;11.926;2022-09-02T12:21:03;21.50;99.90
16814;DHT22;8524;57.650;11.926;2022-09-02T12:24:18;21.60;99.90
16814;DHT22;8524;57.650;11.926;2022-09-02T12:27:08;21.70;99.90
16814;DHT22;8524;57.650;11.926;2022-09-02T12:29:35;22.00;99.90
16814;DHT22;8524;57.650;11.926;2022-09-02T12:32:03;22.10;99.90
16814;DHT22;8524;57.650;11.926;2022-09-02T12:34:54;22.40;99.90
16814;DHT22;8524;57.650;11.926;2022-09-02T12:37:52;22.40;99.90
16814;DHT22;8524;57.650;11.926;2022-09-02T12:40:31;22.00;99.90
16814;DHT22;8524;57.650;11.926;2022-09-02T12:43:04;22.20;99.90
16814;DHT22;8524;57.650;11.926;2022-09-02T12:45:33;22.50;99.90
16814;DHT22;8524;57.650;11.926;2022-09-02T12:48:11;22.60;99.90
16814;DHT22;8524;57.650;11.926;2022-09-02T12:50:54;22.40;99.90
16814;DHT22;8524;57.650;11.926;2022-09-02T12:53:31;22.40;99.90
16814;DHT22;8524;57.650;11.926;2022-09-02T12:56:00;22.30;99.90
16814;DHT22;8524;57.650;11.926;2022-09-02T12:58:33;21.70;99.90
16814;DHT22;8524;57.650;11.926;2022-09-02T13:01:11;21.70;99.90
16814;DHT22;8524;57.650;11.926;2022-09-02T13:04:00;21.80;99.90
16814;DHT22;8524;57.650;11.926;2022-09-02T13:06:42;22.20;99.90
16814;DHT22;8524;57.650;11.926;2022-09-02T13:09:42;22.50;99.90
16814;DHT22;8524;57.650;11.926;2022-09-02T13:12:50;22.70;99.90
16814;DHT22;8524;57.650;11.926;2022-09-02T13:15:52;22.60;99.90
16814;DHT22;8524;57.650;11.926;2022-09-02T13:19:09;22.50;99.90
16814;DHT22;8524;57.650;11.926;2022-09-02T13:21:53;22.40;99.90
16814;DHT22;8524;57.650;11.926;2022-09-02T13:30:55;22.60;99.90
16814;DHT22;8524;57.650;11.926;2022-09-02T13:33:25;22.80;99.90
16814;DHT22;8524;57.650;11.926;2022-09-02T13:35:53;22.90;99.30
16814;DHT22;8524;57.650;11.926;2022-09-02T13:38:23;23.20;99.50
16814;DHT22;8524;57.650;11.926;2022-09-02T13:40:51;23.10;99.90
16814;DHT22;8524;57.650;11.926;2022-09-02T13:43:20;22.80;99.90
16814;DHT22;8524;57.650;11.926;2022-09-02T13:45:48;22.70;99.00
16814;DHT22;8524;57.650;11.926;2022-09-02T13:48:18;23.10;99.90
16814;DHT22;8524;57.650;11.926;2022-09-02T13:50:47;22.90;99.00
16814;DHT22;8524;57.650;11.926;2022-09-02T13:53:21;22.70;99.20
16814;DHT22;8524;57.650;11.926;2022-09-02T13:55:50;22.60;99.90
16814;DHT22;8524;57.650;11.926;2022-09-02T13:58:23;22.70;99.90
16814;DHT22;8524;57.650;11.926;2022-09-02T14:03:46;22.50;99.90
16814;DHT22;8524;57.650;11.926;2022-09-02T14:06:15;22.70;99.90
16814;DHT22;8524;57.650;11.926;2022-09-02T14:08:43;22.70;99.40
16814;DHT22;8524;57.650;11.926;2022-09-02T14:11:14;22.40;99.90
16814;DHT22;8524;57.650;11.926;2022-09-02T14:13:43;22.60;99.90
16814;DHT22;8524;57.650;11.926;2022-09-02T14:16:26;22.80;99.90
16814;DHT22;8524;57.650;11.926;2022-09-02T14:19:06;22.90;99.90
16814;DHT22;8524;57.650;11.926;2022-09-02T14:21:34;22.50;99.90
16814;DHT22;8524;57.650;11.926;2022-09-02T14:24:02;22.40;99.90
16814;DHT22;8524;57.650;11.926;2022-09-02T14:26:34;22.10;99.90
16814;DHT22;8524;57.650;11.926;2022-09-02T14:29:04;21.70;99.90
16814;DHT22;8524;57.650;11.926;2022-09-02T14:31:31;21.30;99.90
16814;DHT22;8524;57.650;11.926;2022-09-02T14:33:59;21.10;99.90
16814;DHT22;8524;57.650;11.926;2022-09-02T14:36:33;20.70;99.90
16814;DHT22;8524;57.650;11.926;2022-09-02T14:39:12;20.60;99.90
16814;DHT22;8524;57.650;11.926;2022-09-02T14:41:45;20.30;99.90
16814;DHT22;8524;57.650;11.926;2022-09-02T14:44:17;20.00;99.90
16814;DHT22;8524;57.650;11.926;2022-09-02T14:46:48;20.10;99.90
16814;DHT22;8524;57.650;11.926;2022-09-02T14:49:20;20.10;99.90
16814;DHT22;8524;57.650;11.926;2022-09-02T14:51:50;20.10;99.90
16814;DHT22;8524;57.650;11.926;2022-09-02T14:54:35;20.20;99.90
16814;DHT22;8524;57.650;11.926;2022-09-02T14:57:04;20.50;99.90
16814;DHT22;8524;57.650;11.926;2022-09-02T14:59:31;20.40;99.90
16814;DHT22;8524;57.650;11.926;2022-09-02T15:01:59;20.30;99.90
16814;DHT22;8524;57.650;11.926;2022-09-02T15:04:26;20.30;99.90
16814;DHT22;8524;57.650;11.926;2022-09-02T15:06:54;20.50;99.90
16814;DHT22;8524;57.650;11.926;2022-09-02T15:09:21;20.80;99.90
16814;DHT22;8524;57.650;11.926;2022-09-02T15:11:50;20.90;99.90
16814;DHT22;8524;57.650;11.926;2022-09-02T15:14:18;21.10;99.90
16814;DHT22;8524;57.650;11.926;2022-09-02T15:16:45;21.10;99.90
16814;DHT22;8524;57.650;11.926;2022-09-02T15:19:13;20.90;99.90
16814;DHT22;8524;57.650;11.926;2022-09-02T15:21:40;21.00;99.90
16814;DHT22;8524;57.650;11.926;2022-09-02T15:24:08;21.00;99.90
16814;DHT22;8524;57.650;11.926;2022-09-02T15:26:35;20.80;99.90
16814;DHT22;8524;57.650;11.926;2022-09-02T15:29:02;20.80;99.90
16814;DHT22;8524;57.650;11.926;2022-09-02T15:31:30;21.00;99.90
16814;DHT22;8524;57.650;11.926;2022-09-02T15:33:56;21.00;99.90
16814;DHT22;8524;57.650;11.926;2022-09-02T15:36:24;21.20;99.90
16814;DHT22;8524;57.650;11.926;2022-09-02T15:38:52;21.70;99.90
16814;DHT22;8524;57.650;11.926;2022-09-02T15:41:22;22.10;99.90
16814;DHT22;8524;57.650;11.926;2022-09-02T15:43:49;22.10;99.90
16814;DHT22;8524;57.650;11.926;2022-09-02T15:46:19;22.00;99.90
16814;DHT22;8524;57.650;11.926;2022-09-02T15:48:47;21.70;99.90
16814;DHT22;8524;57.650;11.926;2022-09-02T15:51:16;21.30;99.90
16814;DHT22;8524;57.650;11.926;2022-09-02T15:53:43;21.00;99.90
16814;DHT22;8524;57.650;11.926;2022-09-02T15:56:17;20.80;99.90
16814;DHT22;8524;57.650;11.926;2022-09-02T15:58:46;20.70;99.90
16814;DHT22;8524;57.650;11.926;2022-09-02T16:01:13;20.40;99.90
16814;DHT22;8524;57.650;11.926;2022-09-02T16:03:41;20.30;99.90
16814;DHT22;8524;57.650;11.926;2022-09-02T16:06:08;20.20;99.90
16814;DHT22;8524;57.650;11.926;2022-09-02T16:08:36;20.10;99.90
16814;DHT22;8524;57.650;11.926;2022-09-02T16:11:04;20.00;99.90
16814;DHT22;8524;57.650;11.926;2022-09-02T16:13:32;19.90;99.90
16814;DHT22;8524;57.650;11.926;2022-09-02T16:16:03;19.70;99.90
16814;DHT22;8524;57.650;11.926;2022-09-02T16:18:31;19.60;99.90
16814;DHT22;8524;57.650;11.926;2022-09-02T16:20:58;19.50;99.90